createdAt,value
2022-09-06T00:00:41.660Z,100253.81
2022-09-06T00:01:43.928Z,100253.81
2022-09-06T00:02:46.372Z,100253.44
2022-09-06T00:03:50.979Z,100250.72
2022-09-06T00:04:56.543Z,100253.81
2022-09-06T00:05:58.701Z,100253.63
2022-09-06T00:07:00.856Z,100253.72
2022-09-06T00:08:05.715Z,100248.19
2022-09-06T00:09:07.700Z,100253.72
2022-09-06T00:10:11.196Z,100248.59
2022-09-06T00:11:15.933Z,100254.38
2022-09-06T00:12:19.454Z,100258.22
2022-09-06T00:13:21.674Z,100253.09
2022-09-06T00:14:24.106Z,100257.59
2022-09-06T00:15:26.158Z,100250.84
2022-09-06T00:16:30.504Z,100256.72
2022-09-06T00:17:35.440Z,100253.94
2022-09-06T00:18:37.910Z,100257.78
2022-09-06T00:19:40.341Z,100260.97
2022-09-06T00:20:42.519Z,100257.44
2022-09-06T00:21:45.093Z,100253.00
2022-09-06T00:22:47.163Z,100258.53
2022-09-06T00:23:53.261Z,100259.75
2022-09-06T00:24:55.690Z,100256.59
2022-09-06T00:26:05.277Z,100255.44
2022-09-06T00:27:09.468Z,100261.63
2022-09-06T00:28:19.836Z,100246.94
2022-09-06T00:29:21.914Z,100256.81
2022-09-06T00:30:26.545Z,100254.50
2022-09-06T00:31:29.803Z,100250.84
2022-09-06T00:32:33.056Z,100251.28
2022-09-06T00:33:37.653Z,100261.38
2022-09-06T00:34:40.167Z,100253.63
2022-09-06T00:35:42.280Z,100263.06
2022-09-06T00:36:44.455Z,100255.53
2022-09-06T00:37:46.957Z,100265.47
2022-09-06T00:38:50.213Z,100261.19
2022-09-06T00:39:52.331Z,100258.31
2022-09-06T00:40:54.480Z,100257.88
2022-09-06T00:41:57.898Z,100251.22
2022-09-06T00:43:01.716Z,100253.56
2022-09-06T00:44:04.298Z,100260.75
2022-09-06T00:45:07.934Z,100262.09
2022-09-06T00:46:14.557Z,100259.03
2022-09-06T00:47:16.706Z,100254.72
2022-09-06T00:48:21.374Z,100265.31
2022-09-06T00:49:29.241Z,100258.19
2022-09-06T00:50:32.871Z,100258.97
2022-09-06T00:51:36.699Z,100257.88
2022-09-06T00:52:40.262Z,100267.03
2022-09-06T00:53:42.970Z,100255.00
2022-09-06T00:54:45.817Z,100260.50
2022-09-06T00:55:49.927Z,100258.81
2022-09-06T00:56:55.565Z,100257.34
2022-09-06T00:57:58.024Z,100268.25
2022-09-06T00:59:03.532Z,100260.44
2022-09-06T01:00:08.858Z,100262.06
2022-09-06T01:01:11.027Z,100264.88
2022-09-06T01:02:16.099Z,100264.34
2022-09-06T01:03:22.974Z,100261.88
2022-09-06T01:04:28.978Z,100259.91
2022-09-06T01:05:45.400Z,100267.44
2022-09-06T01:06:47.565Z,100257.63
2022-09-06T01:08:16.109Z,100257.16
2022-09-06T01:09:53.493Z,100247.84
2022-09-06T01:10:58.525Z,100257.63
2022-09-06T01:12:08.866Z,100254.09
2022-09-06T01:13:48.241Z,100247.78
2022-09-06T01:15:08.984Z,100250.81
2022-09-06T01:16:37.767Z,100251.81
2022-09-06T01:17:59.929Z,100256.59
2022-09-06T01:19:23.482Z,100250.28
2022-09-06T01:20:43.599Z,100251.00
2022-09-06T01:22:23.902Z,100254.25
2022-09-06T01:23:53.663Z,100254.69
2022-09-06T01:25:10.987Z,100260.63
2022-09-06T01:26:23.603Z,100258.31
2022-09-06T01:27:46.361Z,100256.03
2022-09-06T01:28:53.169Z,100262.03
2022-09-06T01:30:13.081Z,100253.63
2022-09-06T01:31:18.906Z,100251.19
2022-09-06T01:32:29.111Z,100253.94
2022-09-06T01:33:54.581Z,100252.03
2022-09-06T01:35:12.810Z,100259.97
2022-09-06T01:36:29.959Z,100257.34
2022-09-06T01:37:32.789Z,100257.03
2022-09-06T01:38:35.832Z,100264.06
2022-09-06T01:39:40.612Z,100259.81
2022-09-06T01:40:42.952Z,100254.94
2022-09-06T01:41:45.107Z,100257.66
2022-09-06T01:42:50.317Z,100253.84
2022-09-06T01:43:54.587Z,100260.22
2022-09-06T01:45:08.574Z,100258.63
2022-09-06T01:46:27.621Z,100257.78
2022-09-06T01:47:29.665Z,100254.53
2022-09-06T01:48:39.426Z,100258.41
2022-09-06T01:49:54.176Z,100254.63
2022-09-06T01:51:35.712Z,100253.00
2022-09-06T01:53:02.585Z,100253.84
2022-09-06T01:54:34.703Z,100254.22
2022-09-06T01:56:17.501Z,100255.31
2022-09-06T01:57:42.021Z,100251.72
2022-09-06T01:59:34.532Z,100253.72
2022-09-06T02:01:09.572Z,100251.34
2022-09-06T02:02:14.923Z,100256.25
2022-09-06T02:03:32.870Z,100255.16
2022-09-06T02:05:05.475Z,100258.03
2022-09-06T02:06:13.301Z,100251.28
2022-09-06T02:07:25.560Z,100262.44
2022-09-06T02:08:44.788Z,100258.31
2022-09-06T02:09:53.113Z,100257.91
2022-09-06T02:11:04.466Z,100255.41
2022-09-06T02:12:13.543Z,100260.50
2022-09-06T02:13:19.481Z,100257.69
2022-09-06T02:14:30.028Z,100260.50
2022-09-06T02:15:39.771Z,100264.88
2022-09-06T02:16:45.997Z,100261.50
2022-09-06T02:17:56.039Z,100254.38
2022-09-06T02:19:05.676Z,100257.03
2022-09-06T02:20:16.344Z,100268.50
2022-09-06T02:21:27.568Z,100263.06
2022-09-06T02:22:33.671Z,100270.13
2022-09-06T02:23:40.276Z,100258.56
2022-09-06T02:24:44.919Z,100266.41
2022-09-06T02:26:00.106Z,100271.88
2022-09-06T02:27:02.233Z,100264.34
2022-09-06T02:28:05.853Z,100264.56
2022-09-06T02:29:08.139Z,100271.03
2022-09-06T02:30:11.168Z,100262.00
2022-09-06T02:31:29.309Z,100265.50
2022-09-06T02:32:38.342Z,100265.44
2022-09-06T02:33:41.528Z,100268.94
2022-09-06T02:34:46.246Z,100263.91
2022-09-06T02:35:51.721Z,100264.88
2022-09-06T02:36:55.082Z,100268.03
2022-09-06T02:37:57.338Z,100259.31
2022-09-06T02:39:00.967Z,100271.22
2022-09-06T02:40:03.655Z,100268.66
2022-09-06T02:41:07.623Z,100266.16
2022-09-06T02:42:11.747Z,100274.22
2022-09-06T02:43:13.798Z,100264.75
2022-09-06T02:44:17.143Z,100275.75
2022-09-06T02:45:19.177Z,100274.81
2022-09-06T02:46:21.414Z,100274.44
2022-09-06T02:47:31.800Z,100266.16
2022-09-06T02:48:33.932Z,100265.19
2022-09-06T02:49:36.866Z,100269.09
2022-09-06T02:50:38.984Z,100262.66
2022-09-06T02:51:41.078Z,100270.63
2022-09-06T02:52:43.379Z,100265.44
2022-09-06T02:53:45.805Z,100265.06
2022-09-06T02:54:47.904Z,100272.03
2022-09-06T02:55:50.042Z,100265.34
2022-09-06T02:56:52.564Z,100268.56
2022-09-06T02:57:54.750Z,100268.13
2022-09-06T02:58:57.049Z,100275.69
2022-09-06T02:59:59.055Z,100274.38
2022-09-06T03:01:01.612Z,100271.63
2022-09-06T03:02:05.411Z,100268.56
2022-09-06T03:03:07.957Z,100276.41
2022-09-06T03:04:10.006Z,100276.97
2022-09-06T03:05:12.211Z,100270.00
2022-09-06T03:06:14.362Z,100273.28
2022-09-06T03:07:16.630Z,100271.69
2022-09-06T03:08:21.887Z,100276.69
2022-09-06T03:09:25.236Z,100274.94
2022-09-06T03:10:28.372Z,100277.47
2022-09-06T03:11:30.542Z,100271.63
2022-09-06T03:12:34.374Z,100278.38
2022-09-06T03:13:36.515Z,100274.09
2022-09-06T03:14:41.346Z,100277.06
2022-09-06T03:15:44.151Z,100269.59
2022-09-06T03:16:46.481Z,100277.19
2022-09-06T03:17:48.626Z,100278.06
2022-09-06T03:18:50.756Z,100272.59
2022-09-06T03:19:53.570Z,100277.75
2022-09-06T03:20:56.784Z,100274.88
2022-09-06T03:21:59.197Z,100272.16
2022-09-06T03:23:02.630Z,100279.69
2022-09-06T03:24:05.545Z,100279.75
2022-09-06T03:25:09.372Z,100270.63
2022-09-06T03:26:11.693Z,100277.50
2022-09-06T03:27:13.989Z,100276.66
2022-09-06T03:28:23.151Z,100274.28
2022-09-06T03:29:26.387Z,100281.34
2022-09-06T03:30:30.302Z,100285.16
2022-09-06T03:31:32.381Z,100282.91
2022-09-06T03:32:36.120Z,100285.34
2022-09-06T03:33:41.895Z,100279.03
2022-09-06T03:34:44.036Z,100283.69
2022-09-06T03:35:55.072Z,100275.16
2022-09-06T03:36:58.817Z,100269.94
2022-09-06T03:38:00.950Z,100278.72
2022-09-06T03:39:02.968Z,100279.88
2022-09-06T03:40:07.514Z,100281.41
2022-09-06T03:41:09.740Z,100282.31
2022-09-06T03:42:14.923Z,100279.44
2022-09-06T03:43:20.483Z,100281.53
2022-09-06T03:44:22.719Z,100287.00
2022-09-06T03:45:25.212Z,100279.25
2022-09-06T03:46:31.565Z,100280.88
2022-09-06T03:47:33.951Z,100277.88
2022-09-06T03:48:36.189Z,100277.94
2022-09-06T03:49:38.225Z,100288.75
2022-09-06T03:50:47.164Z,100288.34
2022-09-06T03:51:49.156Z,100286.47
2022-09-06T03:52:51.132Z,100289.78
2022-09-06T03:53:53.286Z,100286.97
2022-09-06T03:54:55.298Z,100286.94
2022-09-06T03:56:00.726Z,100286.53
2022-09-06T03:57:04.159Z,100296.16
2022-09-06T03:58:06.476Z,100295.31
2022-09-06T03:59:08.464Z,100285.44
2022-09-06T04:00:11.168Z,100288.09
2022-09-06T04:01:19.809Z,100289.03
2022-09-06T04:02:22.202Z,100292.75
2022-09-06T04:03:25.436Z,100288.09
2022-09-06T04:04:27.478Z,100292.19
2022-09-06T04:05:29.760Z,100285.16
2022-09-06T04:06:32.270Z,100288.75
2022-09-06T04:07:34.364Z,100283.94
2022-09-06T04:08:37.464Z,100291.06
2022-09-06T04:09:39.528Z,100290.38
2022-09-06T04:10:42.813Z,100291.66
2022-09-06T04:11:45.203Z,100281.94
2022-09-06T04:12:47.696Z,100283.41
2022-09-06T04:13:49.683Z,100292.88
2022-09-06T04:14:51.788Z,100288.94
2022-09-06T04:15:55.425Z,100284.59
2022-09-06T04:16:58.151Z,100285.25
2022-09-06T04:18:00.224Z,100291.28
2022-09-06T04:19:04.276Z,100281.13
2022-09-06T04:20:06.997Z,100290.97
2022-09-06T04:21:10.254Z,100286.34
2022-09-06T04:22:12.309Z,100298.88
2022-09-06T04:23:14.634Z,100293.16
2022-09-06T04:24:16.629Z,100294.25
2022-09-06T04:25:20.187Z,100295.75
2022-09-06T04:26:22.911Z,100292.13
2022-09-06T04:27:27.343Z,100293.84
2022-09-06T04:28:29.392Z,100290.75
2022-09-06T04:29:31.518Z,100296.47
2022-09-06T04:30:33.471Z,100294.16
2022-09-06T04:31:35.711Z,100291.78
2022-09-06T04:32:37.992Z,100298.06
2022-09-06T04:33:41.035Z,100290.66
2022-09-06T04:34:43.178Z,100288.56
2022-09-06T04:35:50.068Z,100289.59
2022-09-06T04:36:52.097Z,100284.78
2022-09-06T04:37:54.306Z,100292.31
2022-09-06T04:38:58.496Z,100290.31
2022-09-06T04:40:00.722Z,100288.56
2022-09-06T04:41:03.334Z,100287.41
2022-09-06T04:42:05.616Z,100284.63
2022-09-06T04:43:08.144Z,100285.03
2022-09-06T04:44:10.470Z,100294.50
2022-09-06T04:45:12.521Z,100289.63
2022-09-06T04:46:25.211Z,100292.50
2022-09-06T04:47:27.291Z,100290.31
2022-09-06T04:48:29.339Z,100293.06
2022-09-06T04:49:31.369Z,100284.84
2022-09-06T04:50:33.662Z,100286.72
2022-09-06T04:51:42.339Z,100289.88
2022-09-06T04:52:45.560Z,100286.00
2022-09-06T04:53:48.314Z,100288.94
2022-09-06T04:54:50.417Z,100279.75
2022-09-06T04:55:52.595Z,100284.91
2022-09-06T04:56:54.643Z,100278.38
2022-09-06T04:57:58.571Z,100283.25
2022-09-06T04:59:00.708Z,100283.31
2022-09-06T05:00:04.069Z,100289.59
2022-09-06T05:01:07.101Z,100278.06
2022-09-06T05:02:09.346Z,100291.19
2022-09-06T05:03:11.467Z,100288.50
2022-09-06T05:04:15.183Z,100295.22
2022-09-06T05:05:17.316Z,100284.84
2022-09-06T05:06:22.595Z,100288.63
2022-09-06T05:07:25.387Z,100290.72
2022-09-06T05:08:27.487Z,100282.59
2022-09-06T05:09:29.859Z,100278.03
2022-09-06T05:10:31.892Z,100285.94
2022-09-06T05:11:36.908Z,100281.84
2022-09-06T05:12:43.629Z,100282.50
2022-09-06T05:13:47.517Z,100286.91
2022-09-06T05:14:51.883Z,100283.31
2022-09-06T05:15:56.619Z,100282.13
2022-09-06T05:16:58.692Z,100278.81
2022-09-06T05:18:06.953Z,100280.47
2022-09-06T05:19:10.207Z,100277.44
2022-09-06T05:20:15.540Z,100279.22
2022-09-06T05:21:17.936Z,100281.78
2022-09-06T05:22:20.042Z,100279.97
2022-09-06T05:23:22.712Z,100275.03
2022-09-06T05:24:24.991Z,100275.44
2022-09-06T05:25:27.217Z,100274.28
2022-09-06T05:26:29.333Z,100279.44
2022-09-06T05:27:31.359Z,100278.72
2022-09-06T05:28:33.853Z,100270.84
2022-09-06T05:29:35.882Z,100268.88
2022-09-06T05:30:38.053Z,100279.44
2022-09-06T05:31:40.174Z,100272.91
2022-09-06T05:32:42.288Z,100278.00
2022-09-06T05:33:44.738Z,100291.03
2022-09-06T05:34:49.797Z,100282.84
2022-09-06T05:35:52.139Z,100282.75
2022-09-06T05:36:57.242Z,100277.03
2022-09-06T05:37:59.481Z,100282.00
2022-09-06T05:39:02.105Z,100284.81
2022-09-06T05:40:04.272Z,100278.97
2022-09-06T05:41:06.508Z,100281.84
2022-09-06T05:42:08.758Z,100271.31
2022-09-06T05:43:11.034Z,100273.09
2022-09-06T05:44:13.607Z,100275.88
2022-09-06T05:45:15.973Z,100273.28
2022-09-06T05:46:18.131Z,100277.00
2022-09-06T05:47:20.345Z,100279.63
2022-09-06T05:48:24.087Z,100283.72
2022-09-06T05:49:26.411Z,100281.63
2022-09-06T05:50:28.490Z,100277.72
2022-09-06T05:51:31.557Z,100280.47
2022-09-06T05:52:35.498Z,100277.41
2022-09-06T05:53:43.701Z,100282.94
2022-09-06T05:54:45.754Z,100281.22
2022-09-06T05:55:49.507Z,100276.44
2022-09-06T05:56:51.542Z,100282.06
2022-09-06T05:57:53.724Z,100288.50
2022-09-06T05:58:55.843Z,100282.69
2022-09-06T05:59:58.207Z,100293.22
2022-09-06T06:01:20.547Z,100282.94
2022-09-06T06:02:23.432Z,100289.03
2022-09-06T06:03:25.458Z,100284.28
2022-09-06T06:04:27.897Z,100293.09
2022-09-06T06:05:33.301Z,100285.16
2022-09-06T06:06:35.395Z,100282.22
2022-09-06T06:07:38.325Z,100283.88
2022-09-06T06:08:40.488Z,100285.28
2022-09-06T06:09:42.597Z,100276.34
2022-09-06T06:10:44.738Z,100286.94
2022-09-06T06:11:46.863Z,100282.66
2022-09-06T06:12:49.926Z,100282.63
2022-09-06T06:13:52.703Z,100279.19
2022-09-06T06:14:54.968Z,100280.34
2022-09-06T06:15:57.183Z,100287.53
2022-09-06T06:16:59.419Z,100290.91
2022-09-06T06:18:01.629Z,100288.59
2022-09-06T06:19:03.903Z,100281.84
2022-09-06T06:20:06.384Z,100286.25
2022-09-06T06:21:11.019Z,100282.38
2022-09-06T06:22:13.090Z,100282.44
2022-09-06T06:23:15.944Z,100282.06
2022-09-06T06:24:18.689Z,100278.59
2022-09-06T06:25:23.314Z,100286.09
2022-09-06T06:26:27.123Z,100288.34
2022-09-06T06:27:29.246Z,100281.78
2022-09-06T06:28:32.223Z,100296.50
2022-09-06T06:29:34.298Z,100285.84
2022-09-06T06:30:37.350Z,100293.47
2022-09-06T06:31:39.567Z,100286.41
2022-09-06T06:32:41.640Z,100274.66
2022-09-06T06:33:44.474Z,100279.88
2022-09-06T06:34:46.697Z,100285.84
2022-09-06T06:36:01.770Z,100280.66
2022-09-06T06:37:08.273Z,100278.28
2022-09-06T06:38:10.587Z,100275.88
2022-09-06T06:39:12.669Z,100284.53
2022-09-06T06:40:14.966Z,100280.94
2022-09-06T06:41:26.473Z,100280.94
2022-09-06T06:42:28.565Z,100278.22
2022-09-06T06:43:36.589Z,100281.22
2022-09-06T06:44:38.992Z,100278.19
2022-09-06T06:45:41.060Z,100284.41
2022-09-06T06:46:44.529Z,100283.63
2022-09-06T06:47:50.265Z,100285.56
2022-09-06T06:48:57.164Z,100285.81
2022-09-06T06:49:59.397Z,100292.56
2022-09-06T06:51:01.497Z,100291.31
2022-09-06T06:52:06.407Z,100289.63
2022-09-06T06:53:08.613Z,100294.19
2022-09-06T06:54:10.698Z,100291.56
2022-09-06T06:55:12.761Z,100295.91
2022-09-06T06:56:20.382Z,100285.97
2022-09-06T06:57:22.614Z,100295.13
2022-09-06T06:58:25.426Z,100295.94
2022-09-06T06:59:32.683Z,100296.63
2022-09-06T07:00:34.802Z,100296.81
2022-09-06T07:01:37.680Z,100286.78
2022-09-06T07:02:39.837Z,100296.53
2022-09-06T07:03:41.939Z,100296.19
2022-09-06T07:04:44.754Z,100298.53
2022-09-06T07:08:32.098Z,100290.56
2022-09-06T07:10:59.560Z,100283.69
2022-09-06T07:12:01.787Z,100284.84
2022-09-06T07:13:04.220Z,100295.28
2022-09-06T07:14:06.308Z,100298.53
2022-09-06T07:15:09.009Z,100293.28
2022-09-06T07:16:23.345Z,100287.28
2022-09-06T07:17:25.615Z,100282.88
2022-09-06T07:18:27.690Z,100290.38
2022-09-06T07:22:14.093Z,100286.19
2022-09-06T07:24:39.674Z,100281.47
2022-09-06T07:25:41.713Z,100283.88
2022-09-06T07:28:08.778Z,100288.13
2022-09-06T07:29:11.895Z,100282.13
2022-09-06T07:30:14.483Z,100284.81
2022-09-06T07:32:38.912Z,100272.94
2022-09-06T07:33:41.260Z,100277.38
2022-09-06T07:34:43.330Z,100284.94
2022-09-06T07:35:58.505Z,100270.34
2022-09-06T07:37:00.917Z,100267.91
2022-09-06T07:38:03.052Z,100263.00
2022-09-06T07:39:05.167Z,100265.59
2022-09-06T07:40:08.007Z,100267.88
2022-09-06T07:41:11.154Z,100274.28
2022-09-06T07:42:16.391Z,100278.72
2022-09-06T07:43:18.595Z,100267.91
2022-09-06T07:44:20.742Z,100266.41
2022-09-06T07:45:22.798Z,100272.00
2022-09-06T07:46:25.723Z,100263.66
2022-09-06T07:48:50.065Z,100265.78
2022-09-06T07:51:24.186Z,100268.94
2022-09-06T07:53:58.026Z,100265.38
2022-09-06T07:55:10.204Z,100271.06
2022-09-06T07:56:12.938Z,100263.50
2022-09-06T07:57:15.123Z,100259.56
2022-09-06T07:58:17.565Z,100256.63
2022-09-06T07:59:19.648Z,100259.25
2022-09-06T08:00:21.851Z,100264.69
2022-09-06T08:01:30.311Z,100254.41
2022-09-06T08:02:32.611Z,100267.44
2022-09-06T08:03:34.625Z,100268.09
2022-09-06T08:04:36.691Z,100271.38
2022-09-06T08:09:48.380Z,100259.19
2022-09-06T08:10:51.680Z,100262.75
2022-09-06T08:11:54.208Z,100253.03
2022-09-06T08:12:56.312Z,100262.22
2022-09-06T08:14:00.409Z,100259.00
2022-09-06T08:15:02.662Z,100254.25
2022-09-06T08:16:08.710Z,100260.19
2022-09-06T08:17:10.973Z,100251.19
2022-09-06T08:18:13.220Z,100248.44
2022-09-06T08:19:15.770Z,100262.91
2022-09-06T08:20:18.168Z,100255.69
2022-09-06T08:21:23.727Z,100250.25
2022-09-06T08:22:26.983Z,100250.25
2022-09-06T08:23:31.835Z,100259.13
2022-09-06T08:24:36.002Z,100263.91
2022-09-06T08:25:38.464Z,100255.59
2022-09-06T08:26:43.530Z,100263.56
2022-09-06T08:27:45.742Z,100265.59
2022-09-06T08:28:48.183Z,100267.19
2022-09-06T08:29:53.175Z,100261.22
2022-09-06T08:30:55.492Z,100266.38
2022-09-06T08:31:58.110Z,100259.56
2022-09-06T08:33:01.435Z,100266.75
2022-09-06T08:34:06.568Z,100265.16
2022-09-06T08:35:09.448Z,100254.44
2022-09-06T08:36:12.228Z,100261.59
2022-09-06T08:37:14.590Z,100263.22
2022-09-06T08:38:16.620Z,100259.97
2022-09-06T08:39:19.319Z,100263.16
2022-09-06T08:40:24.264Z,100256.44
2022-09-06T08:41:55.551Z,100264.78
2022-09-06T08:43:00.640Z,100264.00
2022-09-06T08:45:35.296Z,100252.06
2022-09-06T08:47:08.812Z,100251.25
2022-09-06T08:48:11.080Z,100257.50
2022-09-06T08:49:13.744Z,100254.03
2022-09-06T08:50:16.186Z,100248.84
2022-09-06T08:51:39.958Z,100248.06
2022-09-06T08:54:26.037Z,100242.50
2022-09-06T08:55:31.087Z,100245.28
2022-09-06T08:56:42.849Z,100244.13
2022-09-06T08:58:03.270Z,100242.09
2022-09-06T08:59:11.785Z,100238.09
2022-09-06T09:00:15.212Z,100237.69
2022-09-06T09:01:27.599Z,100236.44
2022-09-06T09:02:47.746Z,100238.69
2022-09-06T09:03:50.139Z,100240.06
2022-09-06T09:05:04.958Z,100229.28
2022-09-06T09:06:10.379Z,100233.19
2022-09-06T09:07:41.438Z,100233.47
2022-09-06T09:09:08.115Z,100230.16
2022-09-06T09:10:43.675Z,100228.38
2022-09-06T09:11:51.723Z,100230.91
2022-09-06T09:12:54.134Z,100232.47
2022-09-06T09:13:59.996Z,100233.69
2022-09-06T09:15:14.521Z,100232.06
2022-09-06T09:16:35.035Z,100232.75
2022-09-06T09:17:37.685Z,100229.34
2022-09-06T09:18:43.959Z,100232.09
2022-09-06T09:19:46.405Z,100226.22
2022-09-06T09:20:48.542Z,100226.94
2022-09-06T09:21:50.807Z,100224.41
2022-09-06T09:22:52.900Z,100221.31
2022-09-06T09:23:57.609Z,100231.50
2022-09-06T09:25:01.683Z,100231.88
2022-09-06T09:26:07.556Z,100219.53
2022-09-06T09:27:12.865Z,100227.84
2022-09-06T09:28:19.245Z,100231.06
2022-09-06T09:29:26.720Z,100223.97
2022-09-06T09:30:52.883Z,100219.13
2022-09-06T09:31:56.363Z,100222.03
2022-09-06T09:32:58.595Z,100222.44
2022-09-06T09:34:04.827Z,100221.28
2022-09-06T09:35:32.707Z,100217.94
2022-09-06T09:36:34.924Z,100215.34
2022-09-06T09:37:46.620Z,100220.91
2022-09-06T09:38:52.149Z,100214.59
2022-09-06T09:39:55.909Z,100211.75
2022-09-06T09:41:00.105Z,100212.94
2022-09-06T09:42:05.268Z,100208.97
2022-09-06T09:43:27.516Z,100215.38
2022-09-06T09:44:30.994Z,100206.47
2022-09-06T09:45:33.011Z,100215.69
2022-09-06T09:46:40.142Z,100213.75
2022-09-06T09:47:43.262Z,100220.38
2022-09-06T09:49:10.790Z,100218.84
2022-09-06T09:50:30.450Z,100209.81
2022-09-06T09:51:41.164Z,100218.63
2022-09-06T09:52:45.806Z,100226.53
2022-09-06T09:54:05.046Z,100218.63
2022-09-06T09:55:11.869Z,100219.00
2022-09-06T09:56:16.924Z,100221.84
2022-09-06T09:57:21.987Z,100213.84
2022-09-06T09:58:36.529Z,100216.69
2022-09-06T09:59:44.578Z,100214.69
2022-09-06T10:00:46.742Z,100221.44
2022-09-06T10:01:49.701Z,100223.44
2022-09-06T10:02:51.757Z,100216.28
2022-09-06T10:05:24.894Z,100217.13
2022-09-06T10:07:55.451Z,100210.75
2022-09-06T10:08:58.104Z,100214.69
2022-09-06T10:10:05.108Z,100206.75
2022-09-06T10:11:07.377Z,100213.88
2022-09-06T10:12:16.717Z,100215.47
2022-09-06T10:13:34.401Z,100212.63
2022-09-06T10:14:49.567Z,100213.06
2022-09-06T10:15:53.812Z,100217.03
2022-09-06T10:16:57.271Z,100213.50
2022-09-06T10:17:59.831Z,100222.25
2022-09-06T10:19:24.337Z,100220.72
2022-09-06T10:20:46.138Z,100227.47
2022-09-06T10:21:51.222Z,100218.28
2022-09-06T10:22:53.422Z,100226.63
2022-09-06T10:25:49.565Z,100218.59
2022-09-06T10:26:55.792Z,100225.84
2022-09-06T10:28:24.183Z,100224.63
2022-09-06T10:29:45.782Z,100223.44
2022-09-06T10:31:22.422Z,100223.44
2022-09-06T10:32:48.363Z,100225.06
2022-09-06T10:34:19.892Z,100219.91
2022-09-06T10:35:28.288Z,100223.50
2022-09-06T10:36:40.760Z,100212.75
2022-09-06T10:38:05.511Z,100217.88
2022-09-06T10:39:43.019Z,100219.09
2022-09-06T10:41:12.038Z,100209.19
2022-09-06T10:42:32.764Z,100215.53
2022-09-06T10:44:13.801Z,100212.34
2022-09-06T10:45:54.173Z,100222.69
2022-09-06T10:47:09.153Z,100220.69
2022-09-06T10:48:37.183Z,100216.34
2022-09-06T10:49:50.920Z,100217.13
2022-09-06T10:50:57.651Z,100213.94
2022-09-06T10:52:02.792Z,100209.97
2022-09-06T10:53:13.731Z,100213.97
2022-09-06T10:54:23.635Z,100216.28
2022-09-06T10:55:25.901Z,100207.22
2022-09-06T10:57:02.591Z,100209.97
2022-09-06T10:58:22.915Z,100210.78
2022-09-06T11:00:47.530Z,100209.53
2022-09-06T11:01:58.886Z,100205.91
2022-09-06T11:06:17.328Z,100210.66
2022-09-06T11:07:29.512Z,100206.69
2022-09-06T11:08:58.246Z,100213.09
2022-09-06T11:10:22.453Z,100213.06
2022-09-06T11:11:52.236Z,100212.97
2022-09-06T11:13:11.284Z,100208.28
2022-09-06T11:14:19.115Z,100205.13
2022-09-06T11:15:25.028Z,100206.34
2022-09-06T11:16:42.203Z,100203.88
2022-09-06T11:18:01.175Z,100208.69
2022-09-06T11:19:37.167Z,100211.50
2022-09-06T11:20:50.722Z,100204.38
2022-09-06T11:21:57.503Z,100204.41
2022-09-06T11:23:02.588Z,100205.19
2022-09-06T11:24:13.555Z,100212.38
2022-09-06T11:25:37.207Z,100208.00
2022-09-06T11:27:01.685Z,100208.78
2022-09-06T11:28:10.444Z,100219.13
2022-09-06T11:29:25.151Z,100205.19
2022-09-06T11:30:29.926Z,100209.16
2022-09-06T11:33:31.276Z,100211.13
2022-09-06T11:34:35.621Z,100206.81
2022-09-06T11:35:40.291Z,100209.19
2022-09-06T11:36:56.096Z,100206.41
2022-09-06T11:38:02.983Z,100207.59
2022-09-06T11:39:08.099Z,100206.78
2022-09-06T11:40:27.345Z,100202.81
2022-09-06T11:41:36.296Z,100212.38
2022-09-06T11:42:46.133Z,100204.41
2022-09-06T11:43:50.629Z,100207.19
2022-09-06T11:44:54.380Z,100211.16
2022-09-06T11:45:56.599Z,100207.59
2022-09-06T11:46:59.712Z,100204.41
2022-09-06T11:48:24.575Z,100209.19
2022-09-06T11:49:31.263Z,100204.41
2022-09-06T11:50:59.611Z,100204.81
2022-09-06T11:52:03.741Z,100200.41
2022-09-06T11:53:18.969Z,100205.22
2022-09-06T11:54:23.650Z,100200.44
2022-09-06T11:55:40.220Z,100196.47
2022-09-06T11:56:47.118Z,100203.25
2022-09-06T11:57:55.784Z,100192.50
2022-09-06T11:59:16.237Z,100198.44
2022-09-06T12:00:24.617Z,100202.03
2022-09-06T12:01:26.564Z,100189.34
2022-09-06T12:02:36.485Z,100194.88
2022-09-06T12:04:10.019Z,100192.50
2022-09-06T12:05:19.044Z,100190.13
2022-09-06T12:06:33.496Z,100195.69
2022-09-06T12:07:38.114Z,100197.28
2022-09-06T12:08:41.283Z,100188.94
2022-09-06T12:09:44.333Z,100194.09
2022-09-06T12:10:55.586Z,100190.13
2022-09-06T12:11:58.764Z,100183.34
2022-09-06T12:13:01.431Z,100191.31
2022-09-06T12:14:28.483Z,100198.47
2022-09-06T12:15:44.500Z,100191.72
2022-09-06T12:17:05.247Z,100189.31
2022-09-06T12:18:08.749Z,100198.06
2022-09-06T12:19:49.327Z,100183.38
2022-09-06T12:20:56.833Z,100190.91
2022-09-06T12:21:58.951Z,100188.53
2022-09-06T12:23:00.999Z,100192.09
2022-09-06T12:24:05.589Z,100189.69
2022-09-06T12:25:26.607Z,100186.13
2022-09-06T12:27:07.158Z,100183.75
2022-09-06T12:28:21.361Z,100188.53
2022-09-06T12:29:28.603Z,100192.53
2022-09-06T12:30:42.320Z,100188.53
2022-09-06T12:31:52.406Z,100187.34
2022-09-06T12:32:54.615Z,100174.66
2022-09-06T12:34:05.701Z,100178.63
2022-09-06T12:36:48.997Z,100187.75
2022-09-06T12:37:55.660Z,100181.81
2022-09-06T12:39:09.124Z,100179.41
2022-09-06T12:40:12.230Z,100177.78
2022-09-06T12:41:16.920Z,100174.63
2022-09-06T12:42:22.220Z,100170.69
2022-09-06T12:43:24.471Z,100171.88
2022-09-06T12:44:29.220Z,100178.63
2022-09-06T12:45:31.995Z,100178.63
2022-09-06T12:46:35.329Z,100175.84
2022-09-06T12:47:40.273Z,100175.44
2022-09-06T12:48:44.641Z,100176.22
2022-09-06T12:49:46.707Z,100177.03
2022-09-06T12:51:02.565Z,100171.47
2022-09-06T12:52:19.310Z,100178.22
2022-09-06T12:53:25.153Z,100175.44
2022-09-06T12:54:29.044Z,100178.59
2022-09-06T12:55:33.952Z,100179.81
2022-09-06T12:56:38.143Z,100175.81
2022-09-06T12:57:47.740Z,100175.84
2022-09-06T12:58:49.889Z,100169.50
2022-09-06T12:59:57.045Z,100176.66
2022-09-06T13:01:23.011Z,100180.59
2022-09-06T13:02:41.375Z,100173.44
2022-09-06T13:04:16.530Z,100177.44
2022-09-06T13:05:19.118Z,100169.50
2022-09-06T13:06:27.289Z,100174.25
2022-09-06T13:07:31.800Z,100161.94
2022-09-06T13:08:47.511Z,100164.72
2022-09-06T13:09:54.189Z,100168.31
2022-09-06T13:10:57.272Z,100172.28
2022-09-06T13:12:08.361Z,100169.09
2022-09-06T13:13:13.139Z,100168.69
2022-09-06T13:14:24.888Z,100166.31
2022-09-06T13:15:29.337Z,100167.09
2022-09-06T13:16:37.885Z,100167.50
2022-09-06T13:17:41.078Z,100160.75
2022-09-06T13:18:46.660Z,100163.13
2022-09-06T13:19:51.057Z,100168.69
2022-09-06T13:21:05.247Z,100160.75
2022-09-06T13:22:11.323Z,100159.97
2022-09-06T13:23:20.907Z,100156.78